createdAt,value
2019-02-27T00:00:45.206Z,15.50
2019-02-27T00:03:13.898Z,16.42
2019-02-27T00:05:42.459Z,14.93
2019-02-27T00:08:11.003Z,16.67
2019-02-27T00:10:39.899Z,15.75
2019-02-27T00:13:08.646Z,16.15
2019-02-27T00:15:38.050Z,15.60
2019-02-27T00:18:07.112Z,16.07
2019-02-27T00:20:37.044Z,17.80
2019-02-27T00:23:06.141Z,17.07
2019-02-27T00:25:36.246Z,17.05
2019-02-27T00:28:04.865Z,17.77
2019-02-27T00:30:37.974Z,17.67
2019-02-27T00:33:03.908Z,18.50
2019-02-27T00:35:32.449Z,17.15
2019-02-27T00:38:01.195Z,17.80
2019-02-27T00:40:29.736Z,15.48
2019-02-27T00:42:58.261Z,16.52
2019-02-27T00:45:26.978Z,15.83
2019-02-27T00:47:55.439Z,16.70
2019-02-27T00:50:23.961Z,15.70
2019-02-27T00:52:52.606Z,16.90
2019-02-27T00:55:21.154Z,16.50
2019-02-27T00:57:51.846Z,16.82
2019-02-27T01:00:19.917Z,16.30
2019-02-27T01:02:52.616Z,16.97
2019-02-27T01:05:18.632Z,16.87
2019-02-27T01:07:47.358Z,16.87
2019-02-27T01:10:15.805Z,16.50
2019-02-27T01:12:44.267Z,16.40
2019-02-27T01:15:15.646Z,16.55
2019-02-27T01:17:44.323Z,16.23
2019-02-27T01:20:16.074Z,17.17
2019-02-27T01:22:44.775Z,17.07
2019-02-27T01:25:13.221Z,17.32
2019-02-27T01:27:41.763Z,17.12
2019-02-27T01:30:13.314Z,17.80
2019-02-27T01:32:41.991Z,17.02
2019-02-27T01:35:11.852Z,17.00
2019-02-27T01:37:40.434Z,17.12
2019-02-27T01:40:11.624Z,16.67
2019-02-27T01:42:40.303Z,16.23
2019-02-27T01:45:11.815Z,16.35
2019-02-27T01:47:40.445Z,16.37
2019-02-27T01:50:29.816Z,16.40
2019-02-27T01:52:58.273Z,17.62
2019-02-27T01:55:26.737Z,16.57
2019-02-27T01:57:55.311Z,17.70
2019-02-27T02:00:23.987Z,20.15
2019-02-27T02:02:52.750Z,18.20
2019-02-27T02:05:21.247Z,15.43
2019-02-27T02:07:49.702Z,16.45
2019-02-27T02:10:18.387Z,16.27
2019-02-27T02:12:56.277Z,15.28
2019-02-27T02:15:43.350Z,16.75
2019-02-27T02:18:31.556Z,16.48
2019-02-27T02:21:17.595Z,16.07
2019-02-27T02:24:22.542Z,15.30
2019-02-27T02:27:10.779Z,15.63
2019-02-27T02:29:48.363Z,16.32
2019-02-27T02:32:36.796Z,16.60
2019-02-27T02:35:36.075Z,15.08
2019-02-27T02:38:34.945Z,14.05
2019-02-27T02:41:24.081Z,15.70
2019-02-27T02:44:21.081Z,16.00
2019-02-27T02:46:57.442Z,15.03
2019-02-27T02:49:59.565Z,14.78
2019-02-27T02:53:00.301Z,16.27
2019-02-27T02:55:51.830Z,16.37
2019-02-27T02:58:29.503Z,16.50
2019-02-27T03:01:03.821Z,15.78
2019-02-27T03:03:54.960Z,17.20
2019-02-27T03:06:36.122Z,14.78
2019-02-27T03:09:13.597Z,17.02
2019-02-27T03:11:54.091Z,17.62
2019-02-27T03:14:33.446Z,16.85
2019-02-27T03:17:38.318Z,15.03
2019-02-27T03:20:39.034Z,16.02
2019-02-27T03:23:19.532Z,16.05
2019-02-27T03:26:16.429Z,16.05
2019-02-27T03:29:01.876Z,15.90
2019-02-27T03:31:36.344Z,16.15
2019-02-27T03:34:26.085Z,16.15
2019-02-27T03:36:57.878Z,16.77
2019-02-27T03:39:46.198Z,15.90
2019-02-27T03:42:18.031Z,15.65
2019-02-27T03:44:55.804Z,15.95
2019-02-27T03:47:26.379Z,15.70
2019-02-27T03:50:00.936Z,16.10
2019-02-27T03:52:41.666Z,15.58
2019-02-27T03:55:25.233Z,16.07
2019-02-27T03:58:11.806Z,15.75
2019-02-27T04:00:58.604Z,15.10
2019-02-27T04:03:54.238Z,15.60
2019-02-27T04:06:40.370Z,17.20
2019-02-27T04:09:09.549Z,16.23
2019-02-27T04:11:41.482Z,14.63
2019-02-27T04:14:28.917Z,16.17
2019-02-27T04:16:57.559Z,14.10
2019-02-27T04:19:26.205Z,15.93
2019-02-27T04:22:00.775Z,14.95
2019-02-27T04:24:24.903Z,15.63
2019-02-27T04:26:53.503Z,15.83
2019-02-27T04:29:22.007Z,14.40
2019-02-27T04:31:50.467Z,14.13
2019-02-27T04:34:19.085Z,14.30
2019-02-27T04:36:47.803Z,14.30
2019-02-27T04:39:16.402Z,13.30
2019-02-27T04:41:44.945Z,14.18
2019-02-27T04:44:13.570Z,13.88
2019-02-27T04:46:42.105Z,13.45
2019-02-27T04:49:10.625Z,13.90
2019-02-27T04:51:39.244Z,13.25
2019-02-27T04:54:07.866Z,13.22
2019-02-27T04:56:36.323Z,13.93
2019-02-27T04:59:04.813Z,14.95
2019-02-27T05:01:36.463Z,12.75
2019-02-27T05:04:03.600Z,14.30
2019-02-27T05:06:32.199Z,13.22
2019-02-27T05:09:00.821Z,11.93
2019-02-27T05:11:29.549Z,10.30
2019-02-27T05:13:58.226Z,10.65
2019-02-27T05:16:26.677Z,10.55
2019-02-27T05:18:55.284Z,8.93
2019-02-27T05:21:23.935Z,9.90
2019-02-27T05:23:52.468Z,8.08
2019-02-27T05:26:21.011Z,7.72
2019-02-27T05:28:49.569Z,7.40
2019-02-27T05:31:19.008Z,7.80
2019-02-27T05:33:47.621Z,7.53
2019-02-27T05:36:16.260Z,8.10
2019-02-27T05:38:44.820Z,7.22
2019-02-27T05:41:13.412Z,7.55
2019-02-27T05:43:42.069Z,7.05
2019-02-27T05:46:10.611Z,8.08
2019-02-27T05:48:39.118Z,8.23
2019-02-27T05:51:08.540Z,7.08
2019-02-27T05:53:37.790Z,7.33
2019-02-27T05:56:06.340Z,7.53
2019-02-27T05:58:34.991Z,8.45
2019-02-27T06:01:04.916Z,9.40
2019-02-27T06:03:33.760Z,9.55
2019-02-27T06:06:02.322Z,7.37
2019-02-27T06:08:34.880Z,7.53
2019-02-27T06:11:01.010Z,7.22
2019-02-27T06:13:29.653Z,10.25
2019-02-27T06:16:02.940Z,14.95
2019-02-27T06:18:28.375Z,6.30
2019-02-27T06:20:56.959Z,5.05
2019-02-27T06:23:25.630Z,7.42
2019-02-27T06:25:59.065Z,6.20
2019-02-27T06:28:24.395Z,7.97
2019-02-27T06:30:54.643Z,7.90
2019-02-27T06:33:23.161Z,5.28
2019-02-27T06:35:51.823Z,5.10
2019-02-27T06:38:28.172Z,5.37
2019-02-27T06:40:52.312Z,4.92
2019-02-27T06:43:20.978Z,4.90
2019-02-27T06:45:49.630Z,5.22
2019-02-27T06:48:18.223Z,5.33
2019-02-27T06:50:46.830Z,5.08
2019-02-27T06:53:16.490Z,4.85
2019-02-27T06:55:45.336Z,6.35
2019-02-27T06:58:14.921Z,5.65
2019-02-27T07:00:44.156Z,5.45
2019-02-27T07:03:12.691Z,6.10
2019-02-27T07:05:41.268Z,7.28
2019-02-27T07:08:09.954Z,7.12
2019-02-27T07:10:38.479Z,6.60
2019-02-27T07:13:07.147Z,6.95
2019-02-27T07:15:35.696Z,6.37
2019-02-27T07:18:06.125Z,7.37
2019-02-27T07:20:34.466Z,6.28
2019-02-27T07:23:03.046Z,6.65
2019-02-27T07:25:31.800Z,8.73
2019-02-27T07:28:00.377Z,6.85
2019-02-27T07:30:33.325Z,16.90
2019-02-27T07:32:59.265Z,14.23
2019-02-27T07:35:29.247Z,10.72
2019-02-27T07:37:58.086Z,9.80
2019-02-27T07:40:26.605Z,7.85
2019-02-27T07:42:55.154Z,8.30
2019-02-27T07:45:24.136Z,7.80
2019-02-27T07:47:52.733Z,7.65
2019-02-27T07:50:21.863Z,7.33
2019-02-27T07:52:52.073Z,9.53
2019-02-27T07:55:23.083Z,8.20
2019-02-27T07:57:51.110Z,8.10
2019-02-27T08:00:26.498Z,7.80
2019-02-27T08:02:55.452Z,8.68
2019-02-27T08:05:28.334Z,7.90
2019-02-27T08:07:54.325Z,8.58
2019-02-27T08:10:25.136Z,10.08
2019-02-27T08:12:56.496Z,9.78
2019-02-27T08:15:25.413Z,8.28
2019-02-27T08:17:57.446Z,9.40
2019-02-27T08:20:24.505Z,9.33
2019-02-27T08:22:53.155Z,9.43
2019-02-27T08:25:21.821Z,10.18
2019-02-27T08:27:50.372Z,9.65
2019-02-27T08:30:28.957Z,9.33
2019-02-27T08:32:57.462Z,10.05
2019-02-27T08:35:28.916Z,20.37
2019-02-27T08:38:02.615Z,13.30
2019-02-27T08:40:28.007Z,11.55
2019-02-27T08:42:56.653Z,9.80
2019-02-27T08:45:27.075Z,10.00
2019-02-27T08:47:55.864Z,11.08
2019-02-27T08:50:25.049Z,10.10
2019-02-27T08:52:53.590Z,10.48
2019-02-27T08:55:22.976Z,11.10
2019-02-27T08:57:55.533Z,11.70
2019-02-27T09:00:23.566Z,11.85
2019-02-27T09:02:52.075Z,11.90
2019-02-27T09:05:20.958Z,11.45
2019-02-27T09:07:49.745Z,11.48
2019-02-27T09:10:28.028Z,11.73
2019-02-27T09:13:04.786Z,11.57
2019-02-27T09:15:26.579Z,12.10
2019-02-27T09:17:55.193Z,12.07
2019-02-27T09:20:23.871Z,11.48
2019-02-27T09:22:52.595Z,11.88
2019-02-27T09:25:23.685Z,12.63
2019-02-27T09:27:51.359Z,13.93
2019-02-27T09:30:28.811Z,13.13
2019-02-27T09:32:54.159Z,12.15
2019-02-27T09:35:22.735Z,12.20
2019-02-27T09:37:52.054Z,13.18
2019-02-27T09:40:29.664Z,12.43
2019-02-27T09:42:58.466Z,16.60
2019-02-27T09:45:29.495Z,14.05
2019-02-27T09:47:59.942Z,12.50
2019-02-27T09:50:39.352Z,13.35
2019-02-27T09:53:07.991Z,14.40
2019-02-27T09:55:36.450Z,13.10
2019-02-27T09:58:09.915Z,13.48
2019-02-27T10:00:38.918Z,13.80
2019-02-27T10:03:07.595Z,12.40
2019-02-27T10:05:37.394Z,13.60
2019-02-27T10:08:07.694Z,13.25
2019-02-27T10:10:36.274Z,12.82
2019-02-27T10:13:04.848Z,14.73
2019-02-27T10:15:34.446Z,12.05
2019-02-27T10:18:03.221Z,13.25
2019-02-27T10:20:31.728Z,12.60
2019-02-27T10:23:00.304Z,13.95
2019-02-27T10:25:28.967Z,13.45
2019-02-27T10:27:57.630Z,13.80
2019-02-27T10:30:26.389Z,13.80
2019-02-27T10:32:54.925Z,14.18
2019-02-27T10:35:23.477Z,12.80
2019-02-27T10:37:54.349Z,13.48
2019-02-27T10:40:28.364Z,13.28
2019-02-27T10:42:57.159Z,13.72
2019-02-27T10:45:25.767Z,13.68
2019-02-27T10:47:54.365Z,12.93
2019-02-27T10:50:23.027Z,13.05
2019-02-27T10:52:51.552Z,12.40
2019-02-27T10:55:22.299Z,12.55
2019-02-27T10:57:51.308Z,14.33
2019-02-27T11:00:32.381Z,13.28
2019-02-27T11:03:01.757Z,13.80
2019-02-27T11:05:35.084Z,14.53
2019-02-27T11:08:05.290Z,13.48
2019-02-27T11:10:33.842Z,13.80
2019-02-27T11:13:05.449Z,16.23
2019-02-27T11:15:32.564Z,14.53
2019-02-27T11:18:04.688Z,14.23
2019-02-27T11:20:31.310Z,13.83
2019-02-27T11:22:59.889Z,13.80
2019-02-27T11:25:31.961Z,13.75
2019-02-27T11:28:00.626Z,14.45
2019-02-27T11:30:35.991Z,13.88
2019-02-27T11:33:02.502Z,13.28
2019-02-27T11:35:31.045Z,16.62
2019-02-27T11:37:59.655Z,15.13
2019-02-27T11:40:28.567Z,14.58
2019-02-27T11:43:01.104Z,14.13
2019-02-27T11:47:57.816Z,13.45
2019-02-27T11:50:26.340Z,14.18
2019-02-27T11:52:54.997Z,15.35
2019-02-27T11:55:24.450Z,14.43
2019-02-27T11:57:53.314Z,15.40
2019-02-27T12:00:31.518Z,14.55
2019-02-27T12:03:00.040Z,15.32
2019-02-27T12:05:33.714Z,15.20
2019-02-27T12:07:59.350Z,15.50
2019-02-27T12:10:31.940Z,16.48
2019-02-27T12:13:01.283Z,15.25
2019-02-27T12:15:33.191Z,16.90
2019-02-27T12:18:01.963Z,15.85
2019-02-27T12:20:30.701Z,16.07
2019-02-27T12:22:59.459Z,16.75
2019-02-27T12:25:29.983Z,16.35
2019-02-27T12:27:58.310Z,17.23
2019-02-27T12:30:28.350Z,16.52
2019-02-27T12:32:57.231Z,16.80
2019-02-27T12:35:28.619Z,16.65
2019-02-27T12:37:57.219Z,17.57
2019-02-27T12:40:25.895Z,16.70
2019-02-27T12:42:54.543Z,17.70
2019-02-27T12:45:26.492Z,18.07
2019-02-27T12:47:55.182Z,17.60
2019-02-27T12:50:30.462Z,17.00
2019-02-27T12:52:56.551Z,17.32
2019-02-27T12:55:25.109Z,17.35
2019-02-27T12:57:53.762Z,16.45
2019-02-27T13:00:29.945Z,18.32
2019-02-27T13:02:59.102Z,18.40
2019-02-27T13:05:28.449Z,19.60
2019-02-27T13:07:57.105Z,18.82
2019-02-27T13:10:33.143Z,17.75
2019-02-27T13:12:59.350Z,18.17
2019-02-27T13:15:29.109Z,18.37
2019-02-27T13:17:57.984Z,19.55
2019-02-27T13:20:34.967Z,19.73
2019-02-27T13:23:05.128Z,17.07
2019-02-27T13:25:34.110Z,20.95
2019-02-27T13:28:02.825Z,19.73
2019-02-27T13:30:31.473Z,20.20
2019-02-27T13:33:01.360Z,18.55
2019-02-27T13:35:30.475Z,21.90
2019-02-27T13:37:59.107Z,18.42
2019-02-27T13:40:34.922Z,19.98
2019-02-27T13:43:01.621Z,22.65
2019-02-27T13:45:32.264Z,20.00
2019-02-27T13:48:05.894Z,18.77
2019-02-27T13:50:34.420Z,19.17
2019-02-27T13:53:03.036Z,20.12
2019-02-27T13:55:31.626Z,19.62
2019-02-27T13:58:03.450Z,19.07
2019-02-27T14:00:34.254Z,18.55
2019-02-27T14:03:02.758Z,20.43
2019-02-27T14:05:35.195Z,20.77
2019-02-27T14:08:01.733Z,21.05
2019-02-27T14:10:32.514Z,21.10
2019-02-27T14:13:01.153Z,20.20
2019-02-27T14:15:31.517Z,22.82
2019-02-27T14:18:00.198Z,20.00
2019-02-27T14:20:29.198Z,19.07
2019-02-27T14:22:57.955Z,21.68
2019-02-27T14:25:32.456Z,21.33
2019-02-27T14:27:58.848Z,20.45
2019-02-27T14:30:39.831Z,21.52
2019-02-27T14:33:11.036Z,20.48
2019-02-27T14:35:39.852Z,20.48
2019-02-27T14:38:08.500Z,21.68
2019-02-27T14:40:40.233Z,21.73
2019-02-27T14:43:07.520Z,22.17
2019-02-27T14:45:39.718Z,22.10
2019-02-27T14:48:06.490Z,22.62
2019-02-27T14:50:35.101Z,21.70
2019-02-27T14:53:05.262Z,20.90
2019-02-27T14:55:35.956Z,20.27
2019-02-27T14:58:04.119Z,22.67
2019-02-27T15:00:37.041Z,21.77
2019-02-27T15:03:04.459Z,21.95
2019-02-27T15:05:32.914Z,21.17
2019-02-27T15:08:01.464Z,22.75
2019-02-27T15:10:30.195Z,21.48
2019-02-27T15:12:58.633Z,22.07
2019-02-27T15:15:32.191Z,21.17
2019-02-27T15:18:02.521Z,19.05
2019-02-27T15:20:31.431Z,21.52
2019-02-27T15:23:00.058Z,20.90
2019-02-27T15:25:28.722Z,21.75
2019-02-27T15:27:58.734Z,23.05
2019-02-27T15:30:33.975Z,20.88
2019-02-27T15:33:05.385Z,21.50
2019-02-27T15:35:32.655Z,22.50
2019-02-27T15:38:01.319Z,21.93
2019-02-27T15:40:30.550Z,21.15
2019-02-27T15:42:59.264Z,23.25
2019-02-27T15:45:28.448Z,22.50
2019-02-27T15:47:57.170Z,21.50
2019-02-27T15:50:28.635Z,20.92
2019-02-27T15:52:57.237Z,20.08
2019-02-27T15:55:25.911Z,23.52
2019-02-27T15:57:54.632Z,21.02
2019-02-27T16:00:25.473Z,22.42
2019-02-27T16:02:54.065Z,21.20
2019-02-27T16:05:23.813Z,22.22
2019-02-27T16:07:52.487Z,22.37
2019-02-27T16:10:28.028Z,21.15
2019-02-27T16:13:00.042Z,22.95
2019-02-27T16:15:28.632Z,22.15
2019-02-27T16:17:57.186Z,21.85
2019-02-27T16:20:26.832Z,21.57
2019-02-27T16:22:55.381Z,21.45
2019-02-27T16:25:27.846Z,22.90
2019-02-27T16:27:56.365Z,22.07
2019-02-27T16:30:32.398Z,21.25
2019-02-27T16:33:00.300Z,21.73
2019-02-27T16:35:28.882Z,20.75
2019-02-27T16:37:57.951Z,22.82
2019-02-27T16:40:27.814Z,20.65
2019-02-27T16:42:56.349Z,22.15
2019-02-27T16:45:36.850Z,23.22
2019-02-27T16:48:04.382Z,23.73
2019-02-27T16:50:32.892Z,22.60
2019-02-27T16:53:01.530Z,22.02
2019-02-27T16:55:33.250Z,23.60
2019-02-27T16:58:01.950Z,21.57
2019-02-27T17:00:33.038Z,21.95
2019-02-27T17:03:01.649Z,21.45
2019-02-27T17:05:31.933Z,22.05
2019-02-27T17:08:02.379Z,23.18
2019-02-27T17:10:32.466Z,23.12
2019-02-27T17:13:01.041Z,23.22
2019-02-27T17:15:34.676Z,23.35
2019-02-27T17:18:00.106Z,22.32
2019-02-27T17:20:29.162Z,22.75
2019-02-27T17:22:57.789Z,22.75
2019-02-27T17:25:30.047Z,23.25
2019-02-27T17:27:56.840Z,22.58
2019-02-27T17:30:30.118Z,22.87
2019-02-27T17:33:01.360Z,22.07
2019-02-27T17:35:28.910Z,23.47
2019-02-27T17:37:58.347Z,21.70
2019-02-27T17:40:28.872Z,22.73
2019-02-27T17:42:57.288Z,26.48
2019-02-27T17:45:35.189Z,24.10
2019-02-27T17:48:02.626Z,22.62
2019-02-27T17:50:32.330Z,23.75
2019-02-27T17:53:01.099Z,25.02
2019-02-27T17:55:29.766Z,23.83
2019-02-27T17:57:59.195Z,25.65
2019-02-27T18:00:32.930Z,25.40
2019-02-27T18:03:05.068Z,28.50
2019-02-27T18:05:31.970Z,23.92
2019-02-27T18:08:00.568Z,29.12
2019-02-27T18:10:29.271Z,33.55
2019-02-27T18:12:58.818Z,61.37
2019-02-27T18:15:28.314Z,26.10
2019-02-27T18:17:56.958Z,28.83
2019-02-27T18:20:25.857Z,45.88
2019-02-27T18:22:54.589Z,25.35
2019-02-27T18:25:23.315Z,38.75
2019-02-27T18:27:52.054Z,35.83
2019-02-27T18:30:23.599Z,35.95
2019-02-27T18:32:52.254Z,29.48
2019-02-27T18:35:20.781Z,30.40
2019-02-27T18:37:53.338Z,28.15
2019-02-27T18:40:20.229Z,29.98
2019-02-27T18:42:48.831Z,28.42
2019-02-27T18:45:19.448Z,29.65
2019-02-27T18:47:48.148Z,29.85
2019-02-27T18:50:24.806Z,27.37
2019-02-27T18:52:52.188Z,29.75
2019-02-27T18:55:20.798Z,28.85
2019-02-27T18:57:49.345Z,27.10
2019-02-27T19:00:25.535Z,27.27
2019-02-27T19:03:02.349Z,27.65
2019-02-27T19:05:30.928Z,27.45
2019-02-27T19:07:59.546Z,27.40
2019-02-27T19:10:28.257Z,26.42
2019-02-27T19:13:00.019Z,26.82
2019-02-27T19:15:27.726Z,26.75
2019-02-27T19:17:56.356Z,25.88
2019-02-27T19:20:31.139Z,25.75
2019-02-27T19:23:03.610Z,27.07
2019-02-27T19:25:34.814Z,26.30
2019-02-27T19:28:05.865Z,26.55
2019-02-27T19:30:34.810Z,26.80
2019-02-27T19:33:03.806Z,24.80
2019-02-27T19:35:32.465Z,26.23
2019-02-27T19:38:01.050Z,26.52
2019-02-27T19:40:30.465Z,26.97
2019-02-27T19:43:04.552Z,26.00
2019-02-27T19:45:35.941Z,27.58
2019-02-27T19:48:03.357Z,26.52
2019-02-27T19:50:32.012Z,26.93
2019-02-27T19:53:05.167Z,26.40
2019-02-27T19:55:30.926Z,28.05
2019-02-27T19:58:00.705Z,26.65
2019-02-27T20:00:33.613Z,28.38
2019-02-27T20:03:01.579Z,27.55
2019-02-27T20:05:30.611Z,26.40
2019-02-27T20:07:59.328Z,27.42
2019-02-27T20:10:33.104Z,27.90
2019-02-27T20:13:01.173Z,27.90
2019-02-27T20:15:29.802Z,25.48
2019-02-27T20:17:58.411Z,27.67
2019-02-27T20:20:40.911Z,29.37
2019-02-27T20:23:07.654Z,27.40
2019-02-27T20:25:36.547Z,57.15
2019-02-27T20:28:05.294Z,33.10
2019-02-27T20:30:33.820Z,34.88
2019-02-27T20:33:03.153Z,31.87
2019-02-27T20:35:34.634Z,74.37
2019-02-27T20:38:15.339Z,40.48
2019-02-27T20:40:42.334Z,38.48
2019-02-27T20:43:18.592Z,29.48
2019-02-27T20:45:53.289Z,28.90
2019-02-27T20:48:22.042Z,30.27
2019-02-27T20:51:06.083Z,30.27
2019-02-27T20:53:34.947Z,29.67
2019-02-27T20:56:03.750Z,30.80
2019-02-27T20:58:32.380Z,29.40
2019-02-27T21:01:00.955Z,29.05
2019-02-27T21:03:29.570Z,29.77
2019-02-27T21:06:00.758Z,29.30
2019-02-27T21:08:29.307Z,30.00
2019-02-27T21:10:59.768Z,29.45
2019-02-27T21:13:28.552Z,31.33
2019-02-27T21:16:04.321Z,30.20
2019-02-27T21:18:32.577Z,31.70
2019-02-27T21:21:01.995Z,32.28
2019-02-27T21:23:32.921Z,32.15
2019-02-27T21:26:00.924Z,31.97
2019-02-27T21:28:29.595Z,31.75
2019-02-27T21:30:58.203Z,32.70
2019-02-27T21:33:26.935Z,32.33
2019-02-27T21:35:55.545Z,32.33
2019-02-27T21:38:24.083Z,42.88
2019-02-27T21:40:54.937Z,46.88
2019-02-27T21:43:25.592Z,60.08
2019-02-27T21:45:56.626Z,34.25
2019-02-27T21:48:27.799Z,32.53
2019-02-27T21:50:56.700Z,33.48
2019-02-27T21:53:29.588Z,32.98
2019-02-27T21:55:58.380Z,49.15
2019-02-27T21:58:31.931Z,32.28
2019-02-27T22:00:57.300Z,35.65
2019-02-27T22:03:25.880Z,36.20
2019-02-27T22:05:54.690Z,34.65
2019-02-27T22:08:25.133Z,34.23
2019-02-27T22:10:54.483Z,33.25
2019-02-27T22:13:29.500Z,36.03
2019-02-27T22:15:56.653Z,35.60
2019-02-27T22:18:23.749Z,34.98
2019-02-27T22:20:52.404Z,36.80
2019-02-27T22:23:21.498Z,40.00
2019-02-27T22:26:03.118Z,36.42
2019-02-27T22:28:51.107Z,34.98
2019-02-27T22:31:21.264Z,36.38
2019-02-27T22:33:50.103Z,35.92
2019-02-27T22:36:20.275Z,36.08
2019-02-27T22:38:49.068Z,35.05
2019-02-27T22:41:17.613Z,38.23
2019-02-27T22:43:46.246Z,35.48
2019-02-27T22:46:17.140Z,37.85
2019-02-27T22:48:45.779Z,35.68
2019-02-27T22:51:14.242Z,37.80
2019-02-27T22:53:43.114Z,36.75
2019-02-27T22:56:15.762Z,38.75
2019-02-27T22:58:46.611Z,39.83
2019-02-27T23:01:20.542Z,36.63
2019-02-27T23:03:54.949Z,38.98
2019-02-27T23:06:22.113Z,40.28
2019-02-27T23:08:50.683Z,37.90
2019-02-27T23:11:19.443Z,38.42
2019-02-27T23:13:48.531Z,40.38
2019-02-27T23:16:17.308Z,37.33
2019-02-27T23:18:46.426Z,41.35
2019-02-27T23:21:15.043Z,37.93
2019-02-27T23:23:43.732Z,37.70
2019-02-27T23:26:12.365Z,43.85
2019-02-27T23:28:40.904Z,40.03
2019-02-27T23:31:09.506Z,42.20
2019-02-27T23:33:38.095Z,41.92
2019-02-27T23:36:06.783Z,41.75
2019-02-27T23:38:35.895Z,41.20
2019-02-27T23:41:04.658Z,41.58
2019-02-27T23:43:33.975Z,39.63
2019-02-27T23:46:03.615Z,41.40
2019-02-27T23:48:36.094Z,39.30
2019-02-27T23:51:04.100Z,43.08
2019-02-27T23:53:33.942Z,42.73
2019-02-27T23:56:02.537Z,43.28
2019-02-27T23:58:34.098Z,45.05
